createdAt,value
2023-03-12T00:02:17.041Z,14.67
2023-03-12T00:04:44.634Z,14.43
2023-03-12T00:07:12.118Z,16.20
2023-03-12T00:09:40.007Z,14.50
2023-03-12T00:12:07.905Z,15.47
2023-03-12T00:14:35.644Z,16.13
2023-03-12T00:17:03.236Z,15.93
2023-03-12T00:19:30.819Z,16.17
2023-03-12T00:21:58.346Z,16.00
2023-03-12T00:24:25.865Z,15.23
2023-03-12T00:26:53.386Z,15.80
2023-03-12T00:29:21.067Z,14.37
2023-03-12T00:31:48.556Z,16.80
2023-03-12T00:34:16.095Z,16.33
2023-03-12T00:36:43.863Z,15.67
2023-03-12T00:39:11.464Z,16.33
2023-03-12T00:41:38.930Z,16.83
2023-03-12T00:44:06.911Z,17.33
2023-03-12T00:46:34.424Z,18.07
2023-03-12T00:49:01.940Z,17.23
2023-03-12T00:51:29.398Z,18.17
2023-03-12T00:53:56.939Z,18.27
2023-03-12T00:56:25.397Z,17.23
2023-03-12T00:58:52.896Z,17.73
2023-03-12T01:01:20.530Z,18.23
2023-03-12T01:03:48.173Z,17.40
2023-03-12T01:06:15.684Z,18.73
2023-03-12T01:08:43.328Z,18.67
2023-03-12T01:11:14.692Z,18.93
2023-03-12T01:13:42.422Z,18.27
2023-03-12T01:16:10.592Z,17.07
2023-03-12T01:18:38.440Z,18.27
2023-03-12T01:21:06.119Z,18.33
2023-03-12T01:23:33.605Z,17.77
2023-03-12T01:26:01.088Z,17.30
2023-03-12T01:28:28.671Z,18.90
2023-03-12T01:30:56.183Z,19.10
2023-03-12T01:33:23.747Z,19.07
2023-03-12T01:35:51.400Z,18.33
2023-03-12T01:38:20.952Z,20.33
2023-03-12T01:40:48.762Z,19.20
2023-03-12T01:43:33.270Z,18.67
2023-03-12T01:46:26.875Z,17.77
2023-03-12T01:49:04.361Z,19.10
2023-03-12T01:51:40.712Z,20.17
2023-03-12T01:54:10.713Z,19.43
2023-03-12T01:56:38.795Z,20.10
2023-03-12T01:59:08.948Z,19.00
2023-03-12T02:01:36.422Z,18.70
2023-03-12T02:04:04.077Z,18.97
2023-03-12T02:06:35.403Z,19.63
2023-03-12T02:09:03.910Z,19.50
2023-03-12T02:11:31.514Z,18.87
2023-03-12T02:13:59.949Z,19.50
2023-03-12T02:16:27.778Z,19.40
2023-03-12T02:18:56.707Z,20.97
2023-03-12T02:21:26.147Z,20.77
2023-03-12T02:24:14.518Z,19.07
2023-03-12T02:26:42.234Z,19.83
2023-03-12T02:29:10.627Z,19.50
2023-03-12T02:31:45.898Z,21.07
2023-03-12T02:34:13.814Z,20.50
2023-03-12T02:36:41.254Z,21.13
2023-03-12T02:39:08.926Z,21.00
2023-03-12T02:41:38.613Z,20.27
2023-03-12T02:44:09.398Z,20.33
2023-03-12T02:46:49.239Z,20.93
2023-03-12T02:49:17.701Z,21.07
2023-03-12T02:51:45.710Z,20.80
2023-03-12T02:54:13.763Z,21.73
2023-03-12T02:56:41.884Z,21.90
2023-03-12T02:59:09.898Z,22.83
2023-03-12T03:01:41.406Z,23.07
2023-03-12T03:04:09.770Z,22.77
2023-03-12T03:06:38.676Z,22.07
2023-03-12T03:09:06.561Z,22.97
2023-03-12T03:11:34.412Z,23.03
2023-03-12T03:14:04.487Z,20.50
2023-03-12T03:16:32.536Z,21.97
2023-03-12T03:19:00.064Z,21.47
2023-03-12T03:21:27.528Z,22.53
2023-03-12T03:23:55.001Z,21.33
2023-03-12T03:26:24.113Z,20.70
2023-03-12T03:28:52.511Z,20.57
2023-03-12T03:31:20.093Z,21.50
2023-03-12T03:33:48.049Z,20.83
2023-03-12T03:36:16.232Z,21.37
2023-03-12T03:38:58.449Z,21.27
2023-03-12T03:41:27.037Z,19.63
2023-03-12T03:43:58.972Z,20.53
2023-03-12T03:46:27.032Z,20.53
2023-03-12T03:49:00.317Z,19.87
2023-03-12T03:51:29.193Z,18.83
2023-03-12T03:54:00.853Z,21.30
2023-03-12T03:56:29.384Z,20.07
2023-03-12T03:58:58.859Z,19.23
2023-03-12T04:01:27.279Z,20.30
2023-03-12T04:03:56.244Z,20.87
2023-03-12T04:06:23.740Z,19.77
2023-03-12T04:08:51.408Z,20.93
2023-03-12T04:11:22.157Z,20.50
2023-03-12T04:13:50.590Z,20.80
2023-03-12T04:16:20.855Z,20.93
2023-03-12T04:18:50.159Z,19.77
2023-03-12T04:21:18.242Z,19.93
2023-03-12T04:23:47.672Z,20.83
2023-03-12T04:26:17.495Z,21.63
2023-03-12T04:28:45.164Z,21.43
2023-03-12T04:31:13.065Z,20.60
2023-03-12T04:33:45.297Z,22.77
2023-03-12T04:36:13.803Z,26.77
2023-03-12T04:38:44.127Z,21.77
2023-03-12T04:41:14.249Z,21.80
2023-03-12T04:43:48.342Z,21.37
2023-03-12T04:46:17.030Z,21.37
2023-03-12T04:48:45.337Z,22.83
2023-03-12T04:51:13.831Z,23.17
2023-03-12T04:53:41.512Z,20.67
2023-03-12T04:56:11.005Z,22.77
2023-03-12T04:58:39.348Z,22.33
2023-03-12T05:01:07.262Z,22.43
2023-03-12T05:03:35.463Z,22.67
2023-03-12T05:06:03.173Z,23.53
2023-03-12T05:08:31.230Z,22.93
2023-03-12T05:10:58.691Z,24.27
2023-03-12T05:13:26.998Z,23.17
2023-03-12T05:15:57.695Z,24.80
2023-03-12T05:18:26.556Z,24.87
2023-03-12T05:21:02.733Z,24.80
2023-03-12T05:23:30.473Z,23.30
2023-03-12T05:25:59.099Z,24.43
2023-03-12T05:28:28.601Z,23.40
2023-03-12T05:30:59.722Z,23.20
2023-03-12T05:33:28.265Z,22.97
2023-03-12T05:35:56.781Z,22.67
2023-03-12T05:38:24.543Z,24.63
2023-03-12T05:40:57.398Z,24.00
2023-03-12T05:43:25.735Z,24.93
2023-03-12T05:45:54.017Z,26.77
2023-03-12T05:48:21.656Z,29.57
2023-03-12T05:50:50.321Z,27.20
2023-03-12T05:53:17.857Z,28.83
2023-03-12T05:55:47.168Z,27.23
2023-03-12T05:58:15.185Z,25.60
2023-03-12T06:00:44.448Z,24.83
2023-03-12T06:03:13.501Z,26.83
2023-03-12T06:05:42.327Z,26.37
2023-03-12T06:08:09.869Z,25.83
2023-03-12T06:10:39.525Z,28.47
2023-03-12T06:13:09.242Z,25.57
2023-03-12T06:15:36.773Z,26.20
2023-03-12T06:18:06.106Z,27.93
2023-03-12T06:20:34.661Z,27.80
2023-03-12T06:23:05.540Z,26.70
2023-03-12T06:25:33.404Z,27.00
2023-03-12T06:28:00.931Z,28.23
2023-03-12T06:30:28.565Z,27.90
2023-03-12T06:32:56.007Z,28.43
2023-03-12T06:35:23.524Z,28.13
2023-03-12T06:37:50.960Z,28.33
2023-03-12T06:40:18.506Z,28.10
2023-03-12T06:42:45.935Z,27.77
2023-03-12T06:45:13.641Z,28.90
2023-03-12T06:47:41.105Z,29.53
2023-03-12T06:50:08.868Z,27.83
2023-03-12T06:52:36.293Z,29.50
2023-03-12T06:55:03.792Z,26.80
2023-03-12T06:57:31.283Z,26.67
2023-03-12T06:59:58.684Z,27.43
2023-03-12T07:02:26.292Z,27.53
2023-03-12T07:04:53.842Z,26.80
2023-03-12T07:07:21.345Z,27.60
2023-03-12T07:09:48.782Z,27.07
2023-03-12T07:12:16.251Z,26.93
2023-03-12T07:14:43.697Z,26.77
2023-03-12T07:17:11.295Z,28.27
2023-03-12T07:19:38.839Z,27.77
2023-03-12T07:22:06.377Z,28.23
2023-03-12T07:24:33.810Z,30.30
2023-03-12T07:27:01.469Z,32.17
2023-03-12T07:29:28.946Z,26.30
2023-03-12T07:31:56.419Z,26.50
2023-03-12T07:34:24.039Z,26.00
2023-03-12T07:36:51.900Z,25.03
2023-03-12T07:39:19.552Z,27.10
2023-03-12T07:41:47.068Z,26.27
2023-03-12T07:44:14.622Z,24.43
2023-03-12T07:46:42.096Z,24.00
2023-03-12T07:49:09.700Z,23.63
2023-03-12T07:51:37.293Z,25.67
2023-03-12T07:54:04.769Z,25.70
2023-03-12T07:56:34.967Z,24.83
2023-03-12T07:59:02.616Z,22.50
2023-03-12T08:01:32.440Z,22.93
2023-03-12T08:04:00.210Z,24.50
2023-03-12T08:06:28.157Z,22.60
2023-03-12T08:08:55.847Z,24.43
2023-03-12T08:11:23.368Z,24.07
2023-03-12T08:13:51.126Z,30.60
2023-03-12T08:16:18.791Z,23.70
2023-03-12T08:18:46.736Z,28.97
2023-03-12T08:21:16.591Z,42.90
2023-03-12T08:23:44.311Z,29.57
2023-03-12T08:26:11.726Z,34.63
2023-03-12T08:28:39.240Z,32.27
2023-03-12T08:31:07.044Z,23.50
2023-03-12T08:33:34.631Z,23.03
2023-03-12T08:36:02.121Z,23.43
2023-03-12T08:38:29.643Z,21.10
2023-03-12T08:40:58.182Z,23.27
2023-03-12T08:43:28.504Z,26.53
2023-03-12T08:46:00.882Z,25.33
2023-03-12T08:48:29.023Z,23.07
2023-03-12T08:50:57.148Z,21.00
2023-03-12T08:53:25.164Z,24.17
2023-03-12T08:55:56.357Z,20.13
2023-03-12T08:58:25.125Z,28.13
2023-03-12T09:00:52.837Z,23.27
2023-03-12T09:03:21.713Z,23.17
2023-03-12T09:05:49.835Z,19.53
2023-03-12T09:08:18.281Z,19.07
2023-03-12T09:10:50.291Z,18.47
2023-03-12T09:13:17.802Z,19.30
2023-03-12T09:15:45.236Z,18.03
2023-03-12T09:18:12.915Z,17.83
2023-03-12T09:20:40.338Z,18.63
2023-03-12T09:23:07.968Z,15.90
2023-03-12T09:25:35.487Z,17.60
2023-03-12T09:28:02.985Z,16.80
2023-03-12T09:30:32.187Z,15.47
2023-03-12T09:32:59.676Z,16.07
2023-03-12T09:35:27.277Z,17.07
2023-03-12T09:37:54.698Z,15.13
2023-03-12T09:40:24.786Z,14.10
2023-03-12T09:43:04.000Z,16.60
2023-03-12T09:45:33.851Z,15.83
2023-03-12T09:48:02.533Z,16.73
2023-03-12T09:50:40.705Z,15.73
2023-03-12T09:53:27.568Z,14.67
2023-03-12T09:55:56.908Z,14.83
2023-03-12T09:58:32.062Z,14.30
2023-03-12T10:01:02.766Z,12.87
2023-03-12T10:03:59.449Z,12.03
2023-03-12T10:06:30.868Z,11.33
2023-03-12T10:09:11.696Z,11.87
2023-03-12T10:11:49.126Z,11.70
2023-03-12T10:14:33.374Z,12.43
2023-03-12T10:17:26.866Z,10.83
2023-03-12T10:19:59.806Z,13.93
2023-03-12T10:22:47.724Z,14.80
2023-03-12T10:25:35.429Z,15.80
2023-03-12T10:28:12.467Z,15.03
2023-03-12T10:30:41.513Z,18.07
2023-03-12T10:33:13.327Z,14.77
2023-03-12T10:35:41.326Z,17.40
2023-03-12T10:38:14.054Z,12.47
2023-03-12T10:40:42.082Z,12.90
2023-03-12T10:43:10.099Z,12.07
2023-03-12T10:45:43.900Z,11.20
2023-03-12T10:48:12.260Z,10.40
2023-03-12T10:50:40.949Z,10.37
2023-03-12T10:53:29.296Z,10.73
2023-03-12T10:56:01.317Z,9.57
2023-03-12T10:58:32.326Z,8.23
2023-03-12T11:01:01.269Z,5.13
2023-03-12T11:03:29.186Z,5.73
2023-03-12T11:06:00.856Z,2.90
2023-03-12T11:08:32.967Z,3.10
2023-03-12T11:11:01.426Z,3.33
2023-03-12T11:13:30.320Z,3.07
2023-03-12T11:16:20.576Z,3.40
2023-03-12T11:19:04.180Z,2.80
2023-03-12T11:21:32.941Z,1.90
2023-03-12T11:24:11.418Z,2.00
2023-03-12T11:26:45.831Z,2.40
2023-03-12T11:29:43.512Z,2.10
2023-03-12T11:32:34.002Z,2.20
2023-03-12T11:35:02.221Z,2.30
2023-03-12T11:38:02.280Z,1.67
2023-03-12T11:40:50.021Z,2.07
2023-03-12T11:43:43.266Z,1.57
2023-03-12T11:46:30.071Z,1.67
2023-03-12T11:49:08.773Z,2.00
2023-03-12T11:51:47.588Z,1.53
2023-03-12T11:54:33.445Z,1.77
2023-03-12T11:57:04.076Z,1.93
2023-03-12T11:59:51.758Z,1.80
2023-03-12T12:02:45.330Z,1.80
2023-03-12T12:05:39.268Z,2.23
2023-03-12T12:08:29.668Z,1.63
2023-03-12T12:11:06.671Z,2.03
2023-03-12T12:14:06.550Z,2.40
2023-03-12T12:16:48.953Z,1.60
2023-03-12T12:19:36.673Z,2.13
2023-03-12T12:22:21.499Z,1.87
2023-03-12T12:25:09.260Z,1.80
2023-03-12T12:27:41.969Z,2.00
2023-03-12T12:30:35.827Z,1.63
2023-03-12T12:33:32.739Z,2.70
2023-03-12T12:36:00.987Z,2.13
2023-03-12T12:38:32.776Z,2.33
2023-03-12T12:41:12.263Z,2.33
2023-03-12T12:43:44.967Z,2.03
2023-03-12T12:46:20.979Z,1.70
2023-03-12T12:48:53.522Z,1.80
2023-03-12T12:51:22.195Z,2.67
2023-03-12T12:54:22.145Z,2.20
2023-03-12T12:56:53.464Z,2.10
2023-03-12T12:59:27.284Z,1.93
2023-03-12T13:01:56.153Z,2.07
2023-03-12T13:04:41.685Z,2.23
2023-03-12T13:07:29.392Z,2.03
2023-03-12T13:09:58.030Z,2.23
2023-03-12T13:12:32.864Z,1.80
2023-03-12T13:15:01.408Z,1.97
2023-03-12T13:17:36.202Z,1.93
2023-03-12T13:20:15.260Z,2.20
2023-03-12T13:22:53.557Z,1.67
2023-03-12T13:25:32.118Z,1.97
2023-03-12T13:28:01.559Z,2.33
2023-03-12T13:30:55.292Z,1.57
2023-03-12T13:33:41.709Z,2.87
2023-03-12T13:36:25.530Z,1.60
2023-03-12T13:38:55.146Z,1.43
2023-03-12T13:41:38.867Z,1.50
2023-03-12T13:44:44.859Z,1.47
2023-03-12T13:47:23.601Z,1.73
2023-03-12T13:49:58.646Z,1.83
2023-03-12T13:52:27.454Z,1.40
2023-03-12T13:55:15.650Z,1.90
2023-03-12T13:57:47.838Z,1.60
2023-03-12T14:00:26.035Z,1.83
2023-03-12T14:03:16.785Z,1.60
2023-03-12T14:05:54.263Z,1.90
2023-03-12T14:08:56.845Z,1.50
2023-03-12T14:11:50.798Z,1.53
2023-03-12T14:14:41.380Z,1.50
2023-03-12T14:17:17.289Z,1.50
2023-03-12T14:19:58.402Z,1.83
2023-03-12T14:22:26.398Z,1.70
2023-03-12T14:24:58.656Z,1.43
2023-03-12T14:27:28.105Z,1.73
2023-03-12T14:29:59.696Z,1.97
2023-03-12T14:32:32.192Z,1.50
2023-03-12T14:35:05.028Z,2.20
2023-03-12T14:37:34.252Z,1.67
2023-03-12T14:40:02.817Z,1.40
2023-03-12T14:42:32.399Z,1.87
2023-03-12T14:45:01.184Z,1.83
2023-03-12T14:47:29.028Z,1.83
2023-03-12T14:49:57.681Z,1.83
2023-03-12T14:52:26.732Z,2.40
2023-03-12T14:55:05.755Z,2.07
2023-03-12T14:57:33.281Z,2.10
2023-03-12T15:00:01.602Z,1.80
2023-03-12T15:02:31.053Z,1.73
2023-03-12T15:05:00.433Z,1.40
2023-03-12T15:07:33.380Z,1.63
2023-03-12T15:10:03.584Z,2.00
2023-03-12T15:12:34.155Z,1.90
2023-03-12T15:15:08.041Z,2.03
2023-03-12T15:17:35.938Z,1.60
2023-03-12T15:20:09.525Z,1.67
2023-03-12T15:22:37.722Z,1.57
2023-03-12T15:25:23.878Z,2.13
2023-03-12T15:28:01.325Z,1.73
2023-03-12T15:30:29.071Z,1.60
2023-03-12T15:33:15.189Z,1.90
2023-03-12T15:35:44.129Z,2.10
2023-03-12T15:38:15.706Z,1.57
2023-03-12T15:40:48.843Z,1.60
2023-03-12T15:43:18.532Z,1.50
2023-03-12T15:45:46.261Z,1.73
2023-03-12T15:48:27.015Z,1.80
2023-03-12T15:50:54.523Z,1.80
2023-03-12T15:53:26.383Z,1.53
2023-03-12T15:56:05.130Z,1.73
2023-03-12T15:58:34.414Z,1.50
2023-03-12T16:01:12.730Z,1.60
2023-03-12T16:03:41.158Z,1.40
2023-03-12T16:06:15.516Z,1.93
2023-03-12T16:09:00.543Z,1.63
2023-03-12T16:11:30.794Z,1.50
2023-03-12T16:14:18.454Z,1.70
2023-03-12T16:16:46.403Z,1.67
2023-03-12T16:19:15.064Z,1.53
2023-03-12T16:21:42.746Z,1.50
2023-03-12T16:24:10.620Z,1.67
2023-03-12T16:26:43.548Z,1.60
2023-03-12T16:29:11.353Z,1.67
2023-03-12T16:31:38.828Z,2.20
2023-03-12T16:34:06.405Z,1.60
2023-03-12T16:36:33.912Z,1.50
2023-03-12T16:39:01.441Z,1.50
2023-03-12T16:41:29.497Z,1.50
2023-03-12T16:43:57.065Z,1.70
2023-03-12T16:46:24.905Z,1.90
2023-03-12T16:48:53.779Z,1.77
2023-03-12T16:51:21.255Z,1.80
2023-03-12T16:53:58.524Z,1.53
2023-03-12T16:56:33.025Z,1.80
2023-03-12T16:59:01.506Z,1.40
2023-03-12T17:01:29.342Z,1.50
2023-03-12T17:03:56.941Z,1.80
2023-03-12T17:06:26.201Z,1.70
2023-03-12T17:08:54.626Z,1.73
2023-03-12T17:11:23.991Z,1.53
2023-03-12T17:13:53.125Z,1.80
2023-03-12T17:16:20.746Z,1.63
2023-03-12T17:18:48.290Z,1.87
2023-03-12T17:21:16.436Z,1.57
2023-03-12T17:23:44.475Z,1.70
2023-03-12T17:26:12.005Z,1.87
2023-03-12T17:28:39.471Z,1.43
2023-03-12T17:31:07.056Z,1.60
2023-03-12T17:33:34.626Z,1.27
2023-03-12T17:36:03.682Z,1.60
2023-03-12T17:38:34.242Z,1.83
2023-03-12T17:41:02.250Z,1.60
2023-03-12T17:43:29.755Z,1.67
2023-03-12T17:45:57.210Z,2.00
2023-03-12T17:48:25.062Z,2.67
2023-03-12T17:50:52.566Z,2.60
2023-03-12T17:53:19.960Z,3.50
2023-03-12T17:55:47.573Z,2.90
2023-03-12T17:58:15.071Z,2.33
2023-03-12T18:00:42.858Z,2.43
2023-03-12T18:03:10.352Z,2.20
2023-03-12T18:05:43.091Z,2.23
2023-03-12T18:08:10.849Z,2.70
2023-03-12T18:10:40.646Z,2.10
2023-03-12T18:13:08.148Z,1.90
2023-03-12T18:15:35.602Z,2.67
2023-03-12T18:18:03.287Z,2.17
2023-03-12T18:20:38.717Z,2.10
2023-03-12T18:23:07.650Z,2.37
2023-03-12T18:25:35.111Z,2.30
2023-03-12T18:28:02.559Z,1.80
2023-03-12T18:30:30.001Z,2.50
2023-03-12T18:32:57.499Z,2.30
2023-03-12T18:35:30.465Z,2.03
2023-03-12T18:37:58.537Z,1.93
2023-03-12T18:40:27.661Z,1.93
2023-03-12T18:42:57.792Z,2.07
2023-03-12T18:45:25.386Z,2.10
2023-03-12T18:47:52.788Z,2.40
2023-03-12T18:50:20.645Z,2.20
2023-03-12T18:52:48.424Z,2.17
2023-03-12T18:55:16.054Z,2.43
2023-03-12T18:57:43.628Z,1.90
2023-03-12T19:00:15.392Z,2.40
2023-03-12T19:02:43.238Z,2.30
2023-03-12T19:05:11.178Z,2.50
2023-03-12T19:07:39.205Z,2.30
2023-03-12T19:10:07.502Z,2.03
2023-03-12T19:12:45.328Z,2.50
2023-03-12T19:15:18.256Z,2.30
2023-03-12T19:17:45.669Z,2.53
2023-03-12T19:20:14.134Z,2.27
2023-03-12T19:22:41.639Z,2.37
2023-03-12T19:25:09.384Z,2.47
2023-03-12T19:27:36.900Z,2.33
2023-03-12T19:30:04.511Z,2.13
2023-03-12T19:32:42.566Z,2.70
2023-03-12T19:35:11.617Z,2.80
2023-03-12T19:37:39.258Z,2.73
2023-03-12T19:40:07.309Z,2.70
2023-03-12T19:42:34.951Z,3.50
2023-03-12T19:45:02.464Z,2.73
2023-03-12T19:47:33.263Z,3.40
2023-03-12T19:50:00.885Z,3.17
2023-03-12T19:52:28.402Z,2.70
2023-03-12T19:55:04.213Z,2.60
2023-03-12T19:57:32.509Z,2.60
2023-03-12T20:00:00.082Z,2.97
2023-03-12T20:02:27.771Z,2.90
2023-03-12T20:04:55.532Z,2.70
2023-03-12T20:07:23.085Z,2.93
2023-03-12T20:09:51.819Z,2.43
2023-03-12T20:12:19.383Z,2.90
2023-03-12T20:14:46.877Z,2.50
2023-03-12T20:17:14.453Z,3.10
2023-03-12T20:19:42.702Z,3.10
2023-03-12T20:22:10.315Z,2.03
2023-03-12T20:24:37.943Z,2.70
2023-03-12T20:27:05.450Z,3.03
2023-03-12T20:29:32.909Z,3.20
2023-03-12T20:32:00.519Z,3.27
2023-03-12T20:34:28.167Z,2.87
2023-03-12T20:36:55.732Z,2.57
2023-03-12T20:39:23.209Z,2.40
2023-03-12T20:41:50.668Z,3.10
2023-03-12T20:44:18.580Z,3.03
2023-03-12T20:46:47.062Z,2.70
2023-03-12T20:49:14.856Z,2.80
2023-03-12T20:51:43.012Z,3.27
2023-03-12T20:54:10.480Z,3.13
2023-03-12T20:56:40.367Z,3.17
2023-03-12T20:59:07.829Z,3.33
2023-03-12T21:01:35.410Z,3.13
2023-03-12T21:04:03.172Z,2.87
2023-03-12T21:06:30.624Z,2.97
2023-03-12T21:08:58.743Z,3.40
2023-03-12T21:11:29.053Z,2.70
2023-03-12T21:13:56.569Z,2.70
2023-03-12T21:16:24.078Z,2.97
2023-03-12T21:18:56.240Z,3.17
2023-03-12T21:21:24.129Z,2.90
2023-03-12T21:23:51.664Z,3.00
2023-03-12T21:26:19.170Z,3.00
2023-03-12T21:28:46.807Z,2.93
2023-03-12T21:31:16.141Z,2.70
2023-03-12T21:33:43.716Z,3.00
2023-03-12T21:36:12.578Z,3.20
2023-03-12T21:38:40.579Z,3.00
2023-03-12T21:41:09.336Z,3.13
2023-03-12T21:43:37.080Z,3.00
2023-03-12T21:46:24.925Z,2.97
2023-03-12T21:48:52.595Z,2.70
2023-03-12T21:51:20.294Z,3.00
2023-03-12T21:53:47.998Z,3.50
2023-03-12T21:56:15.638Z,2.33
2023-03-12T21:58:44.337Z,2.43
2023-03-12T22:01:12.879Z,2.50
2023-03-12T22:03:41.554Z,2.60
2023-03-12T22:06:10.171Z,2.50
2023-03-12T22:08:37.784Z,2.70
2023-03-12T22:11:05.989Z,2.50
2023-03-12T22:13:33.553Z,2.60
2023-03-12T22:16:02.276Z,3.00
2023-03-12T22:18:30.447Z,2.57
2023-03-12T22:21:01.840Z,2.70
2023-03-12T22:23:30.061Z,2.40
2023-03-12T22:26:00.741Z,2.70
2023-03-12T22:28:28.318Z,2.50
2023-03-12T22:31:02.501Z,3.10
2023-03-12T22:33:30.173Z,3.20
2023-03-12T22:35:57.715Z,3.13
2023-03-12T22:38:25.324Z,2.93
2023-03-12T22:40:55.480Z,3.43
2023-03-12T22:43:23.287Z,3.00
2023-03-12T22:45:53.481Z,2.97
2023-03-12T22:48:20.985Z,3.10
2023-03-12T22:50:54.971Z,3.03
2023-03-12T22:53:22.485Z,2.77
2023-03-12T22:56:03.667Z,2.80
2023-03-12T22:58:31.223Z,2.60
2023-03-12T23:00:59.436Z,2.97
2023-03-12T23:03:27.234Z,2.60
2023-03-12T23:05:54.685Z,2.43
2023-03-12T23:08:22.175Z,2.90
2023-03-12T23:10:57.863Z,2.90
2023-03-12T23:13:26.607Z,3.20
2023-03-12T23:15:54.276Z,2.43
2023-03-12T23:18:22.176Z,2.53
2023-03-12T23:20:58.300Z,3.03
2023-03-12T23:23:25.730Z,3.10
2023-03-12T23:25:53.946Z,3.03
2023-03-12T23:28:21.414Z,3.33
2023-03-12T23:30:58.904Z,3.00
2023-03-12T23:33:26.940Z,3.17
2023-03-12T23:36:14.709Z,3.40
2023-03-12T23:38:42.309Z,3.17
2023-03-12T23:41:29.930Z,3.80
2023-03-12T23:43:58.056Z,3.50
2023-03-12T23:46:27.381Z,4.07
2023-03-12T23:48:55.064Z,3.97
2023-03-12T23:51:27.400Z,4.13
2023-03-12T23:54:07.717Z,5.00
2023-03-12T23:56:39.410Z,4.30
2023-03-12T23:59:08.155Z,3.93
